sensor_id;sensor_type;location;lat;lon;timestamp;P1;durP1;ratioP1;P2;durP2;ratioP2
55031;SDS011;40928;51.076;7.950;2023-07-16T00:02:14;2.28;;;0.85;;
55031;SDS011;40928;51.076;7.950;2023-07-16T00:04:40;2.75;;;1.00;;
55031;SDS011;40928;51.076;7.950;2023-07-16T00:07:06;1.40;;;1.05;;
55031;SDS011;40928;51.076;7.950;2023-07-16T00:09:32;1.85;;;0.90;;
55031;SDS011;40928;51.076;7.950;2023-07-16T00:11:57;2.97;;;0.80;;
55031;SDS011;40928;51.076;7.950;2023-07-16T00:14:23;7.63;;;1.02;;
55031;SDS011;40928;51.076;7.950;2023-07-16T00:16:49;2.97;;;1.33;;
55031;SDS011;40928;51.076;7.950;2023-07-16T00:19:15;1.77;;;0.95;;
55031;SDS011;40928;51.076;7.950;2023-07-16T00:21:40;1.65;;;1.13;;
55031;SDS011;40928;51.076;7.950;2023-07-16T00:24:06;1.33;;;1.00;;
55031;SDS011;40928;51.076;7.950;2023-07-16T00:26:32;2.17;;;1.13;;
55031;SDS011;40928;51.076;7.950;2023-07-16T00:28:57;2.60;;;0.95;;
55031;SDS011;40928;51.076;7.950;2023-07-16T00:31:23;5.40;;;1.17;;
55031;SDS011;40928;51.076;7.950;2023-07-16T00:33:49;3.65;;;1.02;;
55031;SDS011;40928;51.076;7.950;2023-07-16T00:36:15;2.47;;;1.02;;
55031;SDS011;40928;51.076;7.950;2023-07-16T00:38:41;2.25;;;0.80;;
55031;SDS011;40928;51.076;7.950;2023-07-16T00:41:08;3.63;;;1.20;;
55031;SDS011;40928;51.076;7.950;2023-07-16T00:43:35;2.85;;;0.90;;
55031;SDS011;40928;51.076;7.950;2023-07-16T00:46:00;1.80;;;1.05;;
55031;SDS011;40928;51.076;7.950;2023-07-16T00:48:26;2.70;;;1.10;;
55031;SDS011;40928;51.076;7.950;2023-07-16T00:50:53;2.83;;;1.02;;
55031;SDS011;40928;51.076;7.950;2023-07-16T00:53:19;1.90;;;1.10;;
55031;SDS011;40928;51.076;7.950;2023-07-16T00:55:45;4.10;;;1.10;;
55031;SDS011;40928;51.076;7.950;2023-07-16T00:58:11;2.30;;;0.80;;
55031;SDS011;40928;51.076;7.950;2023-07-16T01:00:38;4.18;;;1.08;;
55031;SDS011;40928;51.076;7.950;2023-07-16T01:03:06;3.60;;;0.90;;
55031;SDS011;40928;51.076;7.950;2023-07-16T01:08:33;2.35;;;0.90;;
55031;SDS011;40928;51.076;7.950;2023-07-16T01:11:04;3.00;;;1.00;;
55031;SDS011;40928;51.076;7.950;2023-07-16T01:13:31;2.40;;;0.88;;
55031;SDS011;40928;51.076;7.950;2023-07-16T01:15:58;2.45;;;0.95;;
55031;SDS011;40928;51.076;7.950;2023-07-16T01:18:23;4.57;;;1.00;;
55031;SDS011;40928;51.076;7.950;2023-07-16T01:20:52;2.38;;;0.80;;
55031;SDS011;40928;51.076;7.950;2023-07-16T01:31:52;2.83;;;0.90;;
55031;SDS011;40928;51.076;7.950;2023-07-16T01:34:31;3.33;;;1.05;;
55031;SDS011;40928;51.076;7.950;2023-07-16T01:36:59;2.67;;;1.10;;
55031;SDS011;40928;51.076;7.950;2023-07-16T01:39:27;1.65;;;0.93;;
55031;SDS011;40928;51.076;7.950;2023-07-16T01:41:53;3.50;;;1.00;;
55031;SDS011;40928;51.076;7.950;2023-07-16T01:44:19;2.22;;;1.10;;
55031;SDS011;40928;51.076;7.950;2023-07-16T01:46:47;3.58;;;0.98;;
55031;SDS011;40928;51.076;7.950;2023-07-16T01:49:24;3.35;;;1.15;;
55031;SDS011;40928;51.076;7.950;2023-07-16T01:51:52;6.50;;;0.90;;
55031;SDS011;40928;51.076;7.950;2023-07-16T01:54:20;2.55;;;0.80;;
55031;SDS011;40928;51.076;7.950;2023-07-16T01:56:46;3.33;;;1.00;;
55031;SDS011;40928;51.076;7.950;2023-07-16T01:59:11;2.42;;;0.90;;
55031;SDS011;40928;51.076;7.950;2023-07-16T02:01:37;1.95;;;0.82;;
55031;SDS011;40928;51.076;7.950;2023-07-16T02:04:04;2.97;;;0.90;;
55031;SDS011;40928;51.076;7.950;2023-07-16T02:06:29;4.85;;;0.98;;
55031;SDS011;40928;51.076;7.950;2023-07-16T02:08:55;4.57;;;0.85;;
55031;SDS011;40928;51.076;7.950;2023-07-16T02:11:21;2.60;;;0.85;;
55031;SDS011;40928;51.076;7.950;2023-07-16T02:13:47;3.58;;;0.80;;
55031;SDS011;40928;51.076;7.950;2023-07-16T02:16:16;2.63;;;1.13;;
55031;SDS011;40928;51.076;7.950;2023-07-16T02:18:43;3.47;;;1.00;;
55031;SDS011;40928;51.076;7.950;2023-07-16T02:21:08;2.95;;;0.68;;
55031;SDS011;40928;51.076;7.950;2023-07-16T02:23:34;2.80;;;0.73;;
55031;SDS011;40928;51.076;7.950;2023-07-16T02:26:00;2.80;;;0.98;;
55031;SDS011;40928;51.076;7.950;2023-07-16T02:28:26;1.42;;;0.68;;
55031;SDS011;40928;51.076;7.950;2023-07-16T02:30:52;2.90;;;1.10;;
55031;SDS011;40928;51.076;7.950;2023-07-16T02:33:18;2.72;;;0.75;;
55031;SDS011;40928;51.076;7.950;2023-07-16T02:35:47;4.95;;;0.77;;
55031;SDS011;40928;51.076;7.950;2023-07-16T02:38:20;2.70;;;0.82;;
55031;SDS011;40928;51.076;7.950;2023-07-16T02:40:47;2.55;;;0.60;;
55031;SDS011;40928;51.076;7.950;2023-07-16T02:43:14;5.88;;;0.90;;
55031;SDS011;40928;51.076;7.950;2023-07-16T02:45:40;3.10;;;0.73;;
55031;SDS011;40928;51.076;7.950;2023-07-16T02:48:06;2.90;;;0.77;;
55031;SDS011;40928;51.076;7.950;2023-07-16T02:50:36;3.20;;;0.80;;
55031;SDS011;40928;51.076;7.950;2023-07-16T02:53:06;3.15;;;1.00;;
55031;SDS011;40928;51.076;7.950;2023-07-16T02:55:32;4.18;;;1.08;;
55031;SDS011;40928;51.076;7.950;2023-07-16T02:58:03;3.00;;;1.05;;
55031;SDS011;40928;51.076;7.950;2023-07-16T03:00:32;3.13;;;0.63;;
55031;SDS011;40928;51.076;7.950;2023-07-16T03:02:59;1.67;;;0.77;;
55031;SDS011;40928;51.076;7.950;2023-07-16T03:05:26;3.65;;;1.00;;
55031;SDS011;40928;51.076;7.950;2023-07-16T03:07:53;8.38;;;1.15;;
55031;SDS011;40928;51.076;7.950;2023-07-16T03:10:19;2.47;;;0.60;;
55031;SDS011;40928;51.076;7.950;2023-07-16T03:12:47;2.28;;;0.95;;
55031;SDS011;40928;51.076;7.950;2023-07-16T03:18:59;3.50;;;0.90;;
55031;SDS011;40928;51.076;7.950;2023-07-16T03:21:25;6.93;;;0.90;;
55031;SDS011;40928;51.076;7.950;2023-07-16T03:23:51;4.18;;;0.85;;
55031;SDS011;40928;51.076;7.950;2023-07-16T03:26:16;5.90;;;1.20;;
55031;SDS011;40928;51.076;7.950;2023-07-16T03:28:42;3.45;;;0.85;;
55031;SDS011;40928;51.076;7.950;2023-07-16T03:31:10;2.92;;;1.10;;
55031;SDS011;40928;51.076;7.950;2023-07-16T03:33:39;2.63;;;0.73;;
55031;SDS011;40928;51.076;7.950;2023-07-16T03:36:06;3.63;;;1.23;;
55031;SDS011;40928;51.076;7.950;2023-07-16T03:38:31;1.83;;;0.60;;
55031;SDS011;40928;51.076;7.950;2023-07-16T03:40:57;6.50;;;0.70;;
55031;SDS011;40928;51.076;7.950;2023-07-16T03:43:23;2.50;;;0.98;;
55031;SDS011;40928;51.076;7.950;2023-07-16T03:45:52;1.90;;;0.60;;
55031;SDS011;40928;51.076;7.950;2023-07-16T03:48:19;2.60;;;0.70;;
55031;SDS011;40928;51.076;7.950;2023-07-16T03:50:44;3.92;;;1.00;;
55031;SDS011;40928;51.076;7.950;2023-07-16T03:53:11;3.58;;;1.17;;
55031;SDS011;40928;51.076;7.950;2023-07-16T03:55:37;2.42;;;0.90;;
55031;SDS011;40928;51.076;7.950;2023-07-16T03:58:03;7.55;;;1.30;;
55031;SDS011;40928;51.076;7.950;2023-07-16T04:00:29;5.22;;;2.17;;
55031;SDS011;40928;51.076;7.950;2023-07-16T04:02:55;3.17;;;0.80;;
55031;SDS011;40928;51.076;7.950;2023-07-16T04:05:20;3.40;;;0.98;;
55031;SDS011;40928;51.076;7.950;2023-07-16T04:07:46;3.92;;;0.75;;
55031;SDS011;40928;51.076;7.950;2023-07-16T04:10:12;3.13;;;0.88;;
55031;SDS011;40928;51.076;7.950;2023-07-16T04:12:38;2.85;;;0.90;;
55031;SDS011;40928;51.076;7.950;2023-07-16T04:15:06;3.15;;;0.80;;
55031;SDS011;40928;51.076;7.950;2023-07-16T04:17:34;7.32;;;1.13;;
55031;SDS011;40928;51.076;7.950;2023-07-16T04:20:00;4.05;;;0.90;;
55031;SDS011;40928;51.076;7.950;2023-07-16T04:22:26;3.67;;;0.80;;
55031;SDS011;40928;51.076;7.950;2023-07-16T04:24:51;2.42;;;0.77;;
55031;SDS011;40928;51.076;7.950;2023-07-16T04:27:17;4.00;;;1.00;;
55031;SDS011;40928;51.076;7.950;2023-07-16T04:29:43;3.92;;;0.77;;
55031;SDS011;40928;51.076;7.950;2023-07-16T04:32:09;3.17;;;1.00;;
55031;SDS011;40928;51.076;7.950;2023-07-16T04:34:35;6.70;;;0.80;;
55031;SDS011;40928;51.076;7.950;2023-07-16T04:37:00;6.38;;;1.15;;
55031;SDS011;40928;51.076;7.950;2023-07-16T04:39:26;4.43;;;0.88;;
55031;SDS011;40928;51.076;7.950;2023-07-16T04:41:52;3.25;;;0.85;;
55031;SDS011;40928;51.076;7.950;2023-07-16T04:44:17;4.63;;;1.00;;
55031;SDS011;40928;51.076;7.950;2023-07-16T04:46:43;3.90;;;0.70;;
55031;SDS011;40928;51.076;7.950;2023-07-16T04:49:09;3.72;;;1.08;;
55031;SDS011;40928;51.076;7.950;2023-07-16T04:51:34;4.70;;;1.05;;
55031;SDS011;40928;51.076;7.950;2023-07-16T04:54:00;7.05;;;1.52;;
55031;SDS011;40928;51.076;7.950;2023-07-16T04:56:26;4.78;;;0.80;;
55031;SDS011;40928;51.076;7.950;2023-07-16T04:58:52;1.70;;;0.85;;
55031;SDS011;40928;51.076;7.950;2023-07-16T05:01:17;2.63;;;0.80;;
55031;SDS011;40928;51.076;7.950;2023-07-16T05:03:43;5.30;;;1.20;;
55031;SDS011;40928;51.076;7.950;2023-07-16T05:06:09;2.20;;;0.70;;
55031;SDS011;40928;51.076;7.950;2023-07-16T05:08:34;3.60;;;0.90;;
55031;SDS011;40928;51.076;7.950;2023-07-16T05:11:01;3.78;;;1.00;;
55031;SDS011;40928;51.076;7.950;2023-07-16T05:13:27;7.32;;;1.50;;
55031;SDS011;40928;51.076;7.950;2023-07-16T05:15:53;7.30;;;1.00;;
55031;SDS011;40928;51.076;7.950;2023-07-16T05:18:18;4.75;;;1.30;;
55031;SDS011;40928;51.076;7.950;2023-07-16T05:20:46;1.67;;;1.10;;
55031;SDS011;40928;51.076;7.950;2023-07-16T05:23:13;3.40;;;0.70;;
55031;SDS011;40928;51.076;7.950;2023-07-16T05:25:39;2.10;;;0.90;;
55031;SDS011;40928;51.076;7.950;2023-07-16T05:28:10;4.20;;;0.90;;
55031;SDS011;40928;51.076;7.950;2023-07-16T05:30:36;5.90;;;1.42;;
55031;SDS011;40928;51.076;7.950;2023-07-16T05:33:02;6.32;;;1.45;;
55031;SDS011;40928;51.076;7.950;2023-07-16T05:35:28;6.07;;;0.98;;
55031;SDS011;40928;51.076;7.950;2023-07-16T05:37:53;5.25;;;1.35;;
55031;SDS011;40928;51.076;7.950;2023-07-16T05:40:19;9.75;;;1.70;;
55031;SDS011;40928;51.076;7.950;2023-07-16T05:42:48;5.80;;;1.50;;
55031;SDS011;40928;51.076;7.950;2023-07-16T05:45:17;7.40;;;1.40;;
55031;SDS011;40928;51.076;7.950;2023-07-16T05:47:45;5.68;;;1.42;;
55031;SDS011;40928;51.076;7.950;2023-07-16T05:50:14;6.00;;;1.20;;
55031;SDS011;40928;51.076;7.950;2023-07-16T05:52:44;8.18;;;1.25;;
55031;SDS011;40928;51.076;7.950;2023-07-16T05:55:13;3.15;;;1.10;;
55031;SDS011;40928;51.076;7.950;2023-07-16T05:57:41;5.05;;;1.60;;
55031;SDS011;40928;51.076;7.950;2023-07-16T06:00:07;2.90;;;1.17;;
55031;SDS011;40928;51.076;7.950;2023-07-16T06:02:37;5.57;;;1.63;;
55031;SDS011;40928;51.076;7.950;2023-07-16T06:05:04;6.75;;;1.08;;
55031;SDS011;40928;51.076;7.950;2023-07-16T06:07:30;8.07;;;1.65;;
55031;SDS011;40928;51.076;7.950;2023-07-16T06:09:57;4.82;;;1.58;;
55031;SDS011;40928;51.076;7.950;2023-07-16T06:12:23;5.82;;;1.30;;
55031;SDS011;40928;51.076;7.950;2023-07-16T06:14:49;6.22;;;2.13;;
55031;SDS011;40928;51.076;7.950;2023-07-16T06:17:14;4.35;;;1.20;;
55031;SDS011;40928;51.076;7.950;2023-07-16T06:19:40;8.55;;;1.60;;
55031;SDS011;40928;51.076;7.950;2023-07-16T06:22:08;7.45;;;2.17;;
55031;SDS011;40928;51.076;7.950;2023-07-16T06:24:34;4.07;;;2.03;;
55031;SDS011;40928;51.076;7.950;2023-07-16T06:27:00;3.53;;;1.15;;
55031;SDS011;40928;51.076;7.950;2023-07-16T06:29:28;5.25;;;1.65;;
55031;SDS011;40928;51.076;7.950;2023-07-16T06:32:09;2.90;;;1.38;;
55031;SDS011;40928;51.076;7.950;2023-07-16T06:34:35;4.32;;;1.40;;
55031;SDS011;40928;51.076;7.950;2023-07-16T06:37:01;5.32;;;1.52;;
55031;SDS011;40928;51.076;7.950;2023-07-16T06:39:26;12.68;;;2.95;;
55031;SDS011;40928;51.076;7.950;2023-07-16T06:41:52;10.10;;;1.83;;
55031;SDS011;40928;51.076;7.950;2023-07-16T06:44:20;4.20;;;1.60;;
55031;SDS011;40928;51.076;7.950;2023-07-16T06:46:47;8.98;;;1.73;;
55031;SDS011;40928;51.076;7.950;2023-07-16T06:49:13;11.15;;;2.38;;
55031;SDS011;40928;51.076;7.950;2023-07-16T06:51:38;8.07;;;2.50;;
55031;SDS011;40928;51.076;7.950;2023-07-16T06:54:04;7.20;;;2.05;;
55031;SDS011;40928;51.076;7.950;2023-07-16T06:56:30;8.02;;;2.45;;
55031;SDS011;40928;51.076;7.950;2023-07-16T06:58:56;4.95;;;1.75;;
55031;SDS011;40928;51.076;7.950;2023-07-16T07:01:21;11.85;;;2.45;;
55031;SDS011;40928;51.076;7.950;2023-07-16T07:03:47;6.78;;;2.10;;
55031;SDS011;40928;51.076;7.950;2023-07-16T07:06:13;3.72;;;1.83;;
55031;SDS011;40928;51.076;7.950;2023-07-16T07:08:39;6.40;;;2.08;;
55031;SDS011;40928;51.076;7.950;2023-07-16T07:11:04;4.20;;;1.85;;
55031;SDS011;40928;51.076;7.950;2023-07-16T07:13:30;5.43;;;2.35;;
55031;SDS011;40928;51.076;7.950;2023-07-16T07:15:56;4.43;;;2.13;;
55031;SDS011;40928;51.076;7.950;2023-07-16T07:18:22;7.93;;;1.92;;
55031;SDS011;40928;51.076;7.950;2023-07-16T07:20:48;12.05;;;2.45;;
55031;SDS011;40928;51.076;7.950;2023-07-16T07:23:15;3.80;;;2.00;;
55031;SDS011;40928;51.076;7.950;2023-07-16T07:25:41;8.63;;;2.30;;
55031;SDS011;40928;51.076;7.950;2023-07-16T07:28:07;9.07;;;2.33;;
55031;SDS011;40928;51.076;7.950;2023-07-16T07:30:33;12.23;;;2.42;;
55031;SDS011;40928;51.076;7.950;2023-07-16T07:32:58;8.95;;;2.20;;
55031;SDS011;40928;51.076;7.950;2023-07-16T07:35:24;5.75;;;2.20;;
55031;SDS011;40928;51.076;7.950;2023-07-16T07:37:50;3.65;;;2.30;;
55031;SDS011;40928;51.076;7.950;2023-07-16T07:40:16;4.05;;;1.80;;
55031;SDS011;40928;51.076;7.950;2023-07-16T07:42:42;13.57;;;2.88;;
55031;SDS011;40928;51.076;7.950;2023-07-16T07:45:08;5.90;;;2.40;;
55031;SDS011;40928;51.076;7.950;2023-07-16T07:47:34;5.65;;;2.28;;
55031;SDS011;40928;51.076;7.950;2023-07-16T07:50:01;6.85;;;2.28;;
55031;SDS011;40928;51.076;7.950;2023-07-16T07:52:27;5.75;;;2.20;;
55031;SDS011;40928;51.076;7.950;2023-07-16T07:54:53;4.82;;;2.35;;
55031;SDS011;40928;51.076;7.950;2023-07-16T07:57:19;4.63;;;2.22;;
55031;SDS011;40928;51.076;7.950;2023-07-16T07:59:46;6.50;;;2.22;;
55031;SDS011;40928;51.076;7.950;2023-07-16T08:02:18;6.85;;;2.55;;
55031;SDS011;40928;51.076;7.950;2023-07-16T08:04:46;8.88;;;2.58;;
55031;SDS011;40928;51.076;7.950;2023-07-16T08:07:12;4.85;;;2.10;;
55031;SDS011;40928;51.076;7.950;2023-07-16T08:09:38;7.68;;;2.15;;
55031;SDS011;40928;51.076;7.950;2023-07-16T08:12:04;4.35;;;2.35;;
55031;SDS011;40928;51.076;7.950;2023-07-16T08:14:30;7.07;;;2.40;;
55031;SDS011;40928;51.076;7.950;2023-07-16T08:16:56;6.35;;;2.25;;
55031;SDS011;40928;51.076;7.950;2023-07-16T08:19:22;8.02;;;2.58;;
55031;SDS011;40928;51.076;7.950;2023-07-16T08:21:48;7.53;;;2.58;;
55031;SDS011;40928;51.076;7.950;2023-07-16T08:24:13;7.70;;;2.55;;
55031;SDS011;40928;51.076;7.950;2023-07-16T08:26:39;6.72;;;3.08;;
55031;SDS011;40928;51.076;7.950;2023-07-16T08:29:06;6.53;;;2.40;;
55031;SDS011;40928;51.076;7.950;2023-07-16T08:31:31;12.13;;;2.60;;
55031;SDS011;40928;51.076;7.950;2023-07-16T08:33:57;3.00;;;2.13;;
55031;SDS011;40928;51.076;7.950;2023-07-16T08:36:23;6.50;;;2.75;;
55031;SDS011;40928;51.076;7.950;2023-07-16T08:38:48;7.75;;;2.72;;
55031;SDS011;40928;51.076;7.950;2023-07-16T08:41:15;5.40;;;2.28;;
55031;SDS011;40928;51.076;7.950;2023-07-16T08:43:41;8.32;;;2.40;;
55031;SDS011;40928;51.076;7.950;2023-07-16T08:46:08;13.13;;;2.30;;
55031;SDS011;40928;51.076;7.950;2023-07-16T08:48:34;8.55;;;2.47;;
55031;SDS011;40928;51.076;7.950;2023-07-16T08:51:01;6.72;;;2.60;;
55031;SDS011;40928;51.076;7.950;2023-07-16T08:53:29;9.88;;;2.75;;
55031;SDS011;40928;51.076;7.950;2023-07-16T08:55:56;9.63;;;2.72;;
55031;SDS011;40928;51.076;7.950;2023-07-16T08:58:23;5.60;;;2.63;;
55031;SDS011;40928;51.076;7.950;2023-07-16T09:00:49;3.40;;;2.10;;
55031;SDS011;40928;51.076;7.950;2023-07-16T09:03:16;6.68;;;2.40;;
55031;SDS011;40928;51.076;7.950;2023-07-16T09:05:47;6.07;;;2.80;;
55031;SDS011;40928;51.076;7.950;2023-07-16T09:08:13;4.00;;;2.38;;
55031;SDS011;40928;51.076;7.950;2023-07-16T09:10:40;4.13;;;1.90;;
55031;SDS011;40928;51.076;7.950;2023-07-16T09:13:06;6.00;;;2.80;;
55031;SDS011;40928;51.076;7.950;2023-07-16T09:15:32;4.82;;;2.28;;
55031;SDS011;40928;51.076;7.950;2023-07-16T09:17:59;5.30;;;2.58;;
55031;SDS011;40928;51.076;7.950;2023-07-16T09:20:26;4.53;;;2.17;;
55031;SDS011;40928;51.076;7.950;2023-07-16T09:22:56;10.68;;;3.30;;
55031;SDS011;40928;51.076;7.950;2023-07-16T09:25:30;6.95;;;2.72;;
55031;SDS011;40928;51.076;7.950;2023-07-16T09:28:01;9.23;;;2.60;;
55031;SDS011;40928;51.076;7.950;2023-07-16T09:30:31;6.88;;;2.83;;
55031;SDS011;40928;51.076;7.950;2023-07-16T09:33:14;5.28;;;2.33;;
55031;SDS011;40928;51.076;7.950;2023-07-16T09:35:42;5.60;;;2.35;;
55031;SDS011;40928;51.076;7.950;2023-07-16T09:38:10;3.85;;;2.55;;
55031;SDS011;40928;51.076;7.950;2023-07-16T09:40:37;7.13;;;2.67;;
55031;SDS011;40928;51.076;7.950;2023-07-16T09:43:03;3.92;;;2.55;;
55031;SDS011;40928;51.076;7.950;2023-07-16T09:45:31;5.00;;;2.63;;
55031;SDS011;40928;51.076;7.950;2023-07-16T09:47:57;9.35;;;2.45;;
55031;SDS011;40928;51.076;7.950;2023-07-16T09:50:23;3.65;;;2.35;;
55031;SDS011;40928;51.076;7.950;2023-07-16T09:52:51;4.07;;;2.30;;
55031;SDS011;40928;51.076;7.950;2023-07-16T09:55:17;5.47;;;2.47;;
55031;SDS011;40928;51.076;7.950;2023-07-16T09:57:47;8.20;;;2.47;;
55031;SDS011;40928;51.076;7.950;2023-07-16T10:00:13;4.57;;;2.47;;
55031;SDS011;40928;51.076;7.950;2023-07-16T10:02:44;4.90;;;2.70;;
55031;SDS011;40928;51.076;7.950;2023-07-16T10:05:26;8.10;;;2.78;;
55031;SDS011;40928;51.076;7.950;2023-07-16T10:07:58;5.20;;;2.40;;
55031;SDS011;40928;51.076;7.950;2023-07-16T10:10:26;4.70;;;2.38;;
55031;SDS011;40928;51.076;7.950;2023-07-16T10:17:00;4.78;;;2.15;;
55031;SDS011;40928;51.076;7.950;2023-07-16T10:19:27;4.50;;;2.35;;
55031;SDS011;40928;51.076;7.950;2023-07-16T10:21:53;5.55;;;2.53;;
55031;SDS011;40928;51.076;7.950;2023-07-16T10:24:19;4.53;;;2.35;;
55031;SDS011;40928;51.076;7.950;2023-07-16T10:26:46;5.78;;;2.38;;
55031;SDS011;40928;51.076;7.950;2023-07-16T10:29:12;4.00;;;2.10;;
55031;SDS011;40928;51.076;7.950;2023-07-16T10:31:42;4.50;;;2.72;;
55031;SDS011;40928;51.076;7.950;2023-07-16T10:34:09;7.05;;;2.63;;
55031;SDS011;40928;51.076;7.950;2023-07-16T10:36:40;3.78;;;2.50;;
55031;SDS011;40928;51.076;7.950;2023-07-16T10:39:09;4.63;;;2.33;;
55031;SDS011;40928;51.076;7.950;2023-07-16T10:41:35;5.72;;;2.22;;
55031;SDS011;40928;51.076;7.950;2023-07-16T10:44:01;4.80;;;2.42;;
55031;SDS011;40928;51.076;7.950;2023-07-16T10:46:27;5.72;;;2.95;;
55031;SDS011;40928;51.076;7.950;2023-07-16T10:48:53;5.35;;;2.15;;
55031;SDS011;40928;51.076;7.950;2023-07-16T10:51:24;2.95;;;1.95;;
55031;SDS011;40928;51.076;7.950;2023-07-16T10:53:51;3.88;;;2.00;;
55031;SDS011;40928;51.076;7.950;2023-07-16T10:56:20;6.28;;;2.65;;
55031;SDS011;40928;51.076;7.950;2023-07-16T10:58:46;5.28;;;2.20;;
55031;SDS011;40928;51.076;7.950;2023-07-16T11:01:11;2.75;;;2.28;;
55031;SDS011;40928;51.076;7.950;2023-07-16T11:03:37;6.97;;;2.45;;
55031;SDS011;40928;51.076;7.950;2023-07-16T11:06:06;5.70;;;2.15;;
55031;SDS011;40928;51.076;7.950;2023-07-16T11:08:33;7.20;;;2.53;;
55031;SDS011;40928;51.076;7.950;2023-07-16T11:10:59;3.78;;;2.05;;
55031;SDS011;40928;51.076;7.950;2023-07-16T11:13:25;4.82;;;2.38;;
55031;SDS011;40928;51.076;7.950;2023-07-16T11:15:52;5.90;;;2.15;;
55031;SDS011;40928;51.076;7.950;2023-07-16T11:18:18;4.68;;;2.17;;
55031;SDS011;40928;51.076;7.950;2023-07-16T11:20:44;4.32;;;2.40;;
55031;SDS011;40928;51.076;7.950;2023-07-16T11:23:10;8.40;;;2.28;;
55031;SDS011;40928;51.076;7.950;2023-07-16T11:25:36;8.50;;;2.38;;
55031;SDS011;40928;51.076;7.950;2023-07-16T11:28:01;8.10;;;2.97;;
55031;SDS011;40928;51.076;7.950;2023-07-16T11:30:30;5.28;;;2.13;;
55031;SDS011;40928;51.076;7.950;2023-07-16T11:32:57;6.25;;;2.17;;
55031;SDS011;40928;51.076;7.950;2023-07-16T11:35:23;5.35;;;2.15;;
55031;SDS011;40928;51.076;7.950;2023-07-16T11:37:51;6.35;;;2.38;;
55031;SDS011;40928;51.076;7.950;2023-07-16T11:40:17;4.75;;;2.15;;
55031;SDS011;40928;51.076;7.950;2023-07-16T11:42:44;7.07;;;2.67;;
55031;SDS011;40928;51.076;7.950;2023-07-16T11:45:20;4.10;;;1.90;;
55031;SDS011;40928;51.076;7.950;2023-07-16T11:47:56;5.07;;;2.25;;
55031;SDS011;40928;51.076;7.950;2023-07-16T11:50:22;5.60;;;2.65;;
55031;SDS011;40928;51.076;7.950;2023-07-16T11:52:54;6.93;;;3.08;;
55031;SDS011;40928;51.076;7.950;2023-07-16T11:55:21;6.05;;;2.38;;
55031;SDS011;40928;51.076;7.950;2023-07-16T11:57:48;6.45;;;2.65;;
55031;SDS011;40928;51.076;7.950;2023-07-16T12:00:14;6.30;;;2.38;;
55031;SDS011;40928;51.076;7.950;2023-07-16T12:02:40;5.25;;;2.92;;
55031;SDS011;40928;51.076;7.950;2023-07-16T12:05:05;4.45;;;2.33;;
55031;SDS011;40928;51.076;7.950;2023-07-16T12:07:33;3.88;;;1.95;;
55031;SDS011;40928;51.076;7.950;2023-07-16T12:10:03;4.10;;;2.08;;
55031;SDS011;40928;51.076;7.950;2023-07-16T12:12:31;4.97;;;2.60;;
55031;SDS011;40928;51.076;7.950;2023-07-16T12:14:57;4.57;;;2.45;;
55031;SDS011;40928;51.076;7.950;2023-07-16T12:17:23;4.28;;;2.20;;
55031;SDS011;40928;51.076;7.950;2023-07-16T12:19:49;4.07;;;2.40;;
55031;SDS011;40928;51.076;7.950;2023-07-16T12:22:16;6.07;;;2.90;;
55031;SDS011;40928;51.076;7.950;2023-07-16T12:24:43;7.32;;;3.00;;
55031;SDS011;40928;51.076;7.950;2023-07-16T12:27:09;8.63;;;3.00;;
55031;SDS011;40928;51.076;7.950;2023-07-16T12:29:35;3.75;;;2.13;;
55031;SDS011;40928;51.076;7.950;2023-07-16T12:32:01;7.97;;;2.08;;
55031;SDS011;40928;51.076;7.950;2023-07-16T12:34:27;4.78;;;2.03;;
55031;SDS011;40928;51.076;7.950;2023-07-16T12:36:53;4.82;;;2.42;;
55031;SDS011;40928;51.076;7.950;2023-07-16T12:39:21;4.65;;;1.90;;
55031;SDS011;40928;51.076;7.950;2023-07-16T12:41:47;5.60;;;2.08;;
55031;SDS011;40928;51.076;7.950;2023-07-16T12:44:13;5.10;;;2.10;;
55031;SDS011;40928;51.076;7.950;2023-07-16T12:46:39;3.28;;;2.10;;
55031;SDS011;40928;51.076;7.950;2023-07-16T12:49:04;3.10;;;2.10;;
55031;SDS011;40928;51.076;7.950;2023-07-16T12:51:30;3.95;;;2.00;;
55031;SDS011;40928;51.076;7.950;2023-07-16T12:53:56;7.88;;;2.15;;
55031;SDS011;40928;51.076;7.950;2023-07-16T12:56:22;6.13;;;2.20;;
55031;SDS011;40928;51.076;7.950;2023-07-16T12:58:47;4.32;;;1.98;;
55031;SDS011;40928;51.076;7.950;2023-07-16T13:01:13;5.55;;;2.13;;
55031;SDS011;40928;51.076;7.950;2023-07-16T13:03:39;6.13;;;2.22;;
55031;SDS011;40928;51.076;7.950;2023-07-16T13:06:05;7.05;;;2.55;;
55031;SDS011;40928;51.076;7.950;2023-07-16T13:08:31;5.28;;;2.15;;
55031;SDS011;40928;51.076;7.950;2023-07-16T13:10:57;9.30;;;2.60;;
55031;SDS011;40928;51.076;7.950;2023-07-16T13:13:23;6.47;;;2.20;;
55031;SDS011;40928;51.076;7.950;2023-07-16T13:15:48;7.40;;;2.35;;
55031;SDS011;40928;51.076;7.950;2023-07-16T13:18:14;6.22;;;2.55;;
55031;SDS011;40928;51.076;7.950;2023-07-16T13:20:40;7.75;;;2.38;;
55031;SDS011;40928;51.076;7.950;2023-07-16T13:23:09;5.18;;;2.10;;
55031;SDS011;40928;51.076;7.950;2023-07-16T13:25:36;5.20;;;2.58;;
55031;SDS011;40928;51.076;7.950;2023-07-16T13:28:10;3.88;;;2.40;;
55031;SDS011;40928;51.076;7.950;2023-07-16T13:30:36;6.97;;;2.25;;
55031;SDS011;40928;51.076;7.950;2023-07-16T13:33:02;4.90;;;2.00;;
55031;SDS011;40928;51.076;7.950;2023-07-16T13:35:28;6.93;;;2.17;;
55031;SDS011;40928;51.076;7.950;2023-07-16T13:37:53;4.57;;;2.63;;
55031;SDS011;40928;51.076;7.950;2023-07-16T13:40:19;4.95;;;2.10;;
55031;SDS011;40928;51.076;7.950;2023-07-16T13:42:46;5.25;;;2.40;;
55031;SDS011;40928;51.076;7.950;2023-07-16T13:45:13;5.70;;;2.20;;
55031;SDS011;40928;51.076;7.950;2023-07-16T13:47:39;5.45;;;1.85;;
55031;SDS011;40928;51.076;7.950;2023-07-16T13:50:04;6.32;;;1.90;;
55031;SDS011;40928;51.076;7.950;2023-07-16T13:52:30;2.92;;;1.83;;
55031;SDS011;40928;51.076;7.950;2023-07-16T13:54:56;3.35;;;2.20;;
55031;SDS011;40928;51.076;7.950;2023-07-16T13:57:22;6.55;;;2.40;;
55031;SDS011;40928;51.076;7.950;2023-07-16T13:59:48;2.58;;;1.63;;
55031;SDS011;40928;51.076;7.950;2023-07-16T14:02:13;5.78;;;2.28;;
55031;SDS011;40928;51.076;7.950;2023-07-16T14:04:39;4.13;;;1.98;;
55031;SDS011;40928;51.076;7.950;2023-07-16T14:07:05;3.83;;;1.80;;
55031;SDS011;40928;51.076;7.950;2023-07-16T14:09:30;7.43;;;2.28;;
55031;SDS011;40928;51.076;7.950;2023-07-16T14:11:56;4.45;;;2.25;;
55031;SDS011;40928;51.076;7.950;2023-07-16T14:14:22;4.82;;;2.17;;
55031;SDS011;40928;51.076;7.950;2023-07-16T14:16:48;4.90;;;2.10;;
55031;SDS011;40928;51.076;7.950;2023-07-16T14:19:13;6.50;;;2.17;;
55031;SDS011;40928;51.076;7.950;2023-07-16T14:21:39;4.82;;;2.15;;
55031;SDS011;40928;51.076;7.950;2023-07-16T14:24:05;6.30;;;2.38;;
55031;SDS011;40928;51.076;7.950;2023-07-16T14:26:31;5.10;;;1.67;;
55031;SDS011;40928;51.076;7.950;2023-07-16T14:28:57;3.92;;;1.60;;
55031;SDS011;40928;51.076;7.950;2023-07-16T14:31:23;3.45;;;2.03;;
55031;SDS011;40928;51.076;7.950;2023-07-16T14:33:48;4.13;;;1.63;;
55031;SDS011;40928;51.076;7.950;2023-07-16T14:36:14;6.03;;;2.55;;
55031;SDS011;40928;51.076;7.950;2023-07-16T14:38:40;6.05;;;2.03;;
55031;SDS011;40928;51.076;7.950;2023-07-16T14:41:06;5.70;;;2.03;;
55031;SDS011;40928;51.076;7.950;2023-07-16T14:43:33;2.88;;;2.00;;
55031;SDS011;40928;51.076;7.950;2023-07-16T14:45:59;7.25;;;2.10;;
55031;SDS011;40928;51.076;7.950;2023-07-16T14:48:25;4.47;;;2.00;;
55031;SDS011;40928;51.076;7.950;2023-07-16T14:50:52;5.20;;;2.10;;
55031;SDS011;40928;51.076;7.950;2023-07-16T14:53:18;5.45;;;2.20;;
55031;SDS011;40928;51.076;7.950;2023-07-16T14:55:51;2.40;;;1.65;;
55031;SDS011;40928;51.076;7.950;2023-07-16T14:58:18;5.00;;;2.58;;
55031;SDS011;40928;51.076;7.950;2023-07-16T15:00:44;2.72;;;1.88;;
55031;SDS011;40928;51.076;7.950;2023-07-16T15:03:10;4.80;;;2.15;;
55031;SDS011;40928;51.076;7.950;2023-07-16T15:05:36;3.92;;;2.15;;